Time,TemperatureF,DewpointF,PressureIn,WindDirection,WindDirectionDegrees,WindSpeedMPH,WindSpeedGustMPH,Humidity,HourlyPrecipIn,Conditions,Clouds,dailyrainin,SoftwareType,DateUTC
2013-06-19 00:00:00,51.4,51.1,29.97,West,270,0.0,0.0,99,0.00,,,0.05,Wunderground v.1.15,2013-06-19 04:00:00,
2013-06-19 00:09:00,51.0,50.7,29.98,West,270,0.0,0.0,99,0.00,,,0.00,Wunderground v.1.15,2013-06-19 04:09:00,
2013-06-19 00:20:00,51.0,50.7,29.98,West,270,0.0,0.0,99,0.00,,,0.00,Wunderground v.1.15,2013-06-19 04:20:00,
2013-06-19 00:30:00,50.5,50.2,29.98,West,270,0.0,0.0,99,0.00,,,0.00,Wunderground v.1.15,2013-06-19 04:30:00,
2013-06-19 00:40:00,50.4,50.1,29.98,West,270,0.0,0.0,99,0.00,,,0.00,Wunderground v.1.15,2013-06-19 04:40:00,
2013-06-19 00:50:00,49.9,49.6,29.98,West,270,0.0,0.0,99,0.00,,,0.00,Wunderground v.1.15,2013-06-19 04:50:00,
2013-06-19 00:59:00,49.5,49.2,29.98,West,270,0.0,0.0,99,0.00,,,0.00,Wunderground v.1.15,2013-06-19 04:59:00,
2013-06-19 01:10:00,49.4,49.4,29.98,West,270,0.0,0.0,100,0.00,,,0.00,Wunderground v.1.15,2013-06-19 05:10:00,
2013-06-19 01:19:00,49.2,49.2,29.98,West,270,0.0,0.0,100,0.00,,,0.00,Wunderground v.1.15,2013-06-19 05:19:00,
2013-06-19 01:40:00,48.8,48.8,29.98,West,270,0.0,0.0,100,0.00,,,0.00,Wunderground v.1.15,2013-06-19 05:40:00,
2013-06-19 01:50:00,48.0,48.0,29.98,West,270,0.0,0.0,100,0.00,,,0.00,Wunderground v.1.15,2013-06-19 05:50:00,
2013-06-19 02:00:00,48.2,48.2,29.98,West,270,0.0,0.0,100,0.00,,,0.00,Wunderground v.1.15,2013-06-19 06:00:00,
2013-06-19 02:10:00,48.2,48.2,29.98,West,270,0.0,0.0,100,0.00,,,0.00,Wunderground v.1.15,2013-06-19 06:10:00,
2013-06-19 02:20:00,47.9,47.9,29.98,West,270,0.0,0.0,100,0.00,,,0.00,Wunderground v.1.15,2013-06-19 06:20:00,
2013-06-19 02:29:00,47.4,47.4,29.98,West,270,0.0,0.0,100,0.00,,,0.00,Wunderground v.1.15,2013-06-19 06:29:00,
2013-06-19 02:39:00,47.0,47.0,29.98,West,270,0.0,0.0,100,0.00,,,0.00,Wunderground v.1.15,2013-06-19 06:39:00,
2013-06-19 02:49:00,46.5,46.5,29.98,West,270,0.0,0.0,100,0.00,,,0.00,Wunderground v.1.15,2013-06-19 06:49:00,
2013-06-19 03:00:00,46.0,46.0,29.98,West,270,0.0,0.0,100,0.00,,,0.00,Wunderground v.1.15,2013-06-19 07:00:00,
2013-06-19 03:10:00,45.4,45.4,29.99,West,270,0.0,0.0,100,0.00,,,0.00,Wunderground v.1.15,2013-06-19 07:10:00,
2013-06-19 03:20:00,45.1,45.1,29.99,West,270,0.0,0.0,100,0.00,,,0.00,Wunderground v.1.15,2013-06-19 07:20:00,
2013-06-19 03:30:00,44.9,44.9,30.00,West,270,0.0,0.0,100,0.00,,,0.00,Wunderground v.1.15,2013-06-19 07:30:00,
2013-06-19 03:40:00,44.8,44.8,30.00,West,270,0.0,2.0,100,0.00,,,0.00,Wunderground v.1.15,2013-06-19 07:40:00,
2013-06-19 03:50:00,44.9,44.9,30.00,West,270,0.0,0.0,100,0.00,,,0.00,Wunderground v.1.15,2013-06-19 07:50:00,
2013-06-19 04:00:00,44.2,44.2,30.00,West,270,0.0,0.0,100,0.00,,,0.00,Wunderground v.1.15,2013-06-19 08:00:00,
2013-06-19 04:10:00,44.2,44.2,30.00,West,270,0.0,0.0,100,0.00,,,0.00,Wunderground v.1.15,2013-06-19 08:10:00,
2013-06-19 04:20:00,44.5,44.5,30.01,West,270,0.0,0.0,100,0.00,,,0.00,Wunderground v.1.15,2013-06-19 08:20:00,
2013-06-19 04:30:00,44.5,44.5,30.01,West,270,0.0,0.0,100,0.00,,,0.00,Wunderground v.1.15,2013-06-19 08:30:00,
2013-06-19 04:40:00,44.9,44.9,30.01,West,270,0.0,0.0,100,0.00,,,0.00,Wunderground v.1.15,2013-06-19 08:40:00,
2013-06-19 04:50:00,45.4,45.4,30.01,West,270,0.0,0.0,100,0.00,,,0.00,Wunderground v.1.15,2013-06-19 08:50:00,
2013-06-19 05:00:00,45.1,45.1,30.01,West,270,0.0,0.0,100,0.00,,,0.00,Wunderground v.1.15,2013-06-19 09:00:00,
2013-06-19 05:09:00,44.8,44.8,30.01,West,270,0.0,0.0,100,0.00,,,0.01,Wunderground v.1.15,2013-06-19 09:09:00,
2013-06-19 05:19:00,45.1,45.1,30.02,West,270,0.0,0.0,100,0.00,,,0.01,Wunderground v.1.15,2013-06-19 09:19:00,
2013-06-19 05:29:00,44.5,44.5,30.02,West,270,0.0,0.0,100,0.00,,,0.01,Wunderground v.1.15,2013-06-19 09:29:00,
2013-06-19 05:40:00,44.6,44.6,30.03,West,270,0.0,0.0,100,0.00,,,0.01,Wunderground v.1.15,2013-06-19 09:40:00,
2013-06-19 05:50:00,45.1,45.1,30.03,West,270,0.0,0.0,100,0.00,,,0.01,Wunderground v.1.15,2013-06-19 09:50:00,
2013-06-19 05:59:00,45.1,45.1,30.03,West,270,0.0,1.0,100,0.00,,,0.01,Wunderground v.1.15,2013-06-19 09:59:00,
2013-06-19 06:10:00,44.9,44.9,30.03,West,270,0.0,1.0,100,0.00,,,0.01,Wunderground v.1.15,2013-06-19 10:10:00,
2013-06-19 06:20:00,44.9,44.9,30.03,West,279,0.0,0.0,100,0.00,,,0.01,Wunderground v.1.15,2013-06-19 10:20:00,
2013-06-19 06:30:00,45.2,45.2,30.03,West,279,0.0,0.0,100,0.00,,,0.01,Wunderground v.1.15,2013-06-19 10:30:00,
2013-06-19 06:40:00,45.4,45.4,30.03,West,279,0.0,0.0,100,0.00,,,0.01,Wunderground v.1.15,2013-06-19 10:40:00,
2013-06-19 06:50:00,45.4,45.4,30.04,West,279,0.0,0.0,100,0.00,,,0.01,Wunderground v.1.15,2013-06-19 10:50:00,
2013-06-19 06:59:00,45.8,45.8,30.04,West,271,0.0,0.0,100,0.00,,,0.01,Wunderground v.1.15,2013-06-19 10:59:00,
2013-06-19 07:10:00,46.5,46.2,30.04,WNW,284,1.0,1.0,99,0.00,,,0.01,Wunderground v.1.15,2013-06-19 11:10:00,
2013-06-19 07:20:00,47.3,46.5,30.05,WNW,297,1.0,1.0,97,0.00,,,0.01,Wunderground v.1.15,2013-06-19 11:20:00,
2013-06-19 07:30:00,48.2,46.6,30.05,West,264,2.0,4.0,94,0.00,,,0.01,Wunderground v.1.15,2013-06-19 11:30:00,
2013-06-19 07:40:00,49.4,45.7,30.05,WNW,301,4.0,4.0,87,0.00,,,0.01,Wunderground v.1.15,2013-06-19 11:40:00,
2013-06-19 07:50:00,50.4,45.7,30.05,West,271,5.0,5.0,84,0.00,,,0.01,Wunderground v.1.15,2013-06-19 11:50:00,
2013-06-19 08:00:00,51.7,47.3,30.05,WNW,283,3.0,3.0,85,0.00,,,0.01,Wunderground v.1.15,2013-06-19 12:00:00,
2013-06-19 08:10:00,52.8,47.1,30.05,WNW,292,4.0,4.0,81,0.00,,,0.01,Wunderground v.1.15,2013-06-19 12:10:00,
2013-06-19 08:19:00,53.6,47.2,30.06,West,265,3.0,3.0,79,0.00,,,0.01,Wunderground v.1.15,2013-06-19 12:19:00,
2013-06-19 08:29:00,53.9,45.8,30.06,WSW,257,5.0,5.0,74,0.00,,,0.01,Wunderground v.1.15,2013-06-19 12:29:00,
2013-06-19 08:40:00,54.5,47.1,30.06,West,276,3.0,5.0,76,0.00,,,0.01,Wunderground v.1.15,2013-06-19 12:40:00,
2013-06-19 08:50:00,55.3,47.9,30.06,WNW,290,4.0,5.0,76,0.00,,,0.01,Wunderground v.1.15,2013-06-19 12:50:00,
2013-06-19 09:00:00,55.7,46.4,30.06,WNW,295,4.0,4.0,71,0.00,,,0.01,Wunderground v.1.15,2013-06-19 13:00:00,
2013-06-19 09:10:00,56.0,46.7,30.07,West,276,3.0,3.0,71,0.00,,,0.01,Wunderground v.1.15,2013-06-19 13:10:00,
2013-06-19 09:20:00,57.0,49.2,30.08,West,265,4.0,4.0,75,0.00,,,0.01,Wunderground v.1.15,2013-06-19 13:20:00,
2013-06-19 09:30:00,57.5,47.8,30.08,NW,308,3.0,3.0,70,0.00,,,0.01,Wunderground v.1.15,2013-06-19 13:30:00,
2013-06-19 09:39:00,57.8,46.9,30.08,West,271,4.0,8.0,67,0.00,,,0.01,Wunderground v.1.15,2013-06-19 13:39:00,
2013-06-19 09:50:00,57.6,45.9,30.08,West,273,5.0,9.0,65,0.00,,,0.01,Wunderground v.1.15,2013-06-19 13:50:00,
2013-06-19 10:00:00,58.4,47.5,30.08,WNW,283,4.0,5.0,67,0.00,,,0.01,Wunderground v.1.15,2013-06-19 14:00:00,
2013-06-19 10:10:00,59.5,47.3,30.08,West,280,3.0,3.0,64,0.00,,,0.01,Wunderground v.1.15,2013-06-19 14:10:00,
2013-06-19 10:20:00,59.3,47.9,30.08,West,276,3.0,7.0,66,0.00,,,0.01,Wunderground v.1.15,2013-06-19 14:20:00,
2013-06-19 10:29:00,60.2,47.6,30.08,West,272,3.0,3.0,63,0.00,,,0.01,Wunderground v.1.15,2013-06-19 14:29:00,
2013-06-19 10:39:00,60.1,47.0,30.09,NW,311,4.0,4.0,62,0.00,,,0.01,Wunderground v.1.15,2013-06-19 14:39:00,
2013-06-19 10:49:00,60.7,47.6,30.09,West,268,3.0,3.0,62,0.00,,,0.01,Wunderground v.1.15,2013-06-19 14:49:00,
2013-06-19 10:59:00,61.2,46.8,30.09,NNW,335,4.0,5.0,59,0.00,,,0.01,Wunderground v.1.15,2013-06-19 14:59:00,
2013-06-19 11:10:00,61.3,44.5,30.09,West,268,6.0,6.0,54,0.00,,,0.01,Wunderground v.1.15,2013-06-19 15:10:00,
2013-06-19 11:20:00,61.6,43.8,30.09,NW,322,3.0,4.0,52,0.00,,,0.01,Wunderground v.1.15,2013-06-19 15:20:00,
2013-06-19 11:30:00,62.4,47.4,30.09,NW,323,2.0,7.0,58,0.00,,,0.01,Wunderground v.1.15,2013-06-19 15:30:00,
2013-06-19 11:40:00,62.7,44.8,30.09,West,276,5.0,5.0,52,0.00,,,0.01,Wunderground v.1.15,2013-06-19 15:40:00,
2013-06-19 11:49:00,62.4,39.6,30.10,WSW,237,6.0,6.0,43,0.00,,,0.01,Wunderground v.1.15,2013-06-19 15:49:00,
2013-06-19 12:00:00,63.1,43.6,30.10,West,278,5.0,5.0,49,0.00,,,0.01,Wunderground v.1.15,2013-06-19 16:00:00,
2013-06-19 12:10:00,63.9,44.4,30.10,West,268,3.0,7.0,49,0.00,,,0.01,Wunderground v.1.15,2013-06-19 16:10:00,
2013-06-19 12:20:00,63.4,40.5,30.10,West,277,5.0,5.0,43,0.00,,,0.01,Wunderground v.1.15,2013-06-19 16:20:00,
2013-06-19 12:30:00,63.9,42.1,30.10,West,260,3.0,4.0,45,0.00,,,0.01,Wunderground v.1.15,2013-06-19 16:30:00,
2013-06-19 12:39:00,63.9,41.0,30.10,WNW,289,4.0,7.0,43,0.00,,,0.01,Wunderground v.1.15,2013-06-19 16:39:00,
2013-06-19 12:49:00,64.2,45.7,30.10,West,274,4.0,4.0,51,0.00,,,0.01,Wunderground v.1.15,2013-06-19 16:49:00,
2013-06-19 12:59:00,63.7,43.1,30.10,WNW,296,4.0,4.0,47,0.00,,,0.01,Wunderground v.1.15,2013-06-19 16:59:00,
2013-06-19 13:10:00,64.3,45.3,30.10,NW,312,4.0,13.0,50,0.00,,,0.01,Wunderground v.1.15,2013-06-19 17:10:00,
2013-06-19 13:20:00,64.2,41.8,30.10,West,260,3.0,3.0,44,0.00,,,0.01,Wunderground v.1.15,2013-06-19 17:20:00,
2013-06-19 13:30:00,64.8,41.8,30.10,SW,235,2.0,2.0,43,0.00,,,0.01,Wunderground v.1.15,2013-06-19 17:30:00,
2013-06-19 13:40:00,65.0,42.5,30.10,WNW,293,2.0,13.0,44,0.00,,,0.01,Wunderground v.1.15,2013-06-19 17:40:00,
2013-06-19 13:50:00,65.0,43.7,30.10,West,272,4.0,4.0,46,0.00,,,0.01,Wunderground v.1.15,2013-06-19 17:50:00,
2013-06-19 14:00:00,64.7,44.5,30.10,WNW,284,3.0,13.0,48,0.00,,,0.01,Wunderground v.1.15,2013-06-19 18:00:00,
2013-06-19 14:10:00,65.3,46.2,30.09,WNW,297,4.0,4.0,50,0.00,,,0.01,Wunderground v.1.15,2013-06-19 18:10:00,
2013-06-19 14:19:00,65.5,39.9,30.09,WNW,301,3.0,3.0,39,0.00,,,0.01,Wunderground v.1.15,2013-06-19 18:19:00,
2013-06-19 14:30:00,66.0,46.8,30.09,SW,215,2.0,2.0,50,0.00,,,0.01,Wunderground v.1.15,2013-06-19 18:30:00,
2013-06-19 14:40:00,66.4,45.0,30.10,NW,305,2.0,13.0,46,0.00,,,0.01,Wunderground v.1.15,2013-06-19 18:40:00,
2013-06-19 14:50:00,66.3,42.5,30.10,West,276,2.0,13.0,42,0.00,,,0.01,Wunderground v.1.15,2013-06-19 18:50:00,
2013-06-19 15:00:00,66.1,39.7,30.09,NW,316,4.0,4.0,38,0.00,,,0.01,Wunderground v.1.15,2013-06-19 19:00:00,
2013-06-19 15:09:00,66.4,39.3,30.09,WNW,297,3.0,3.0,37,0.00,,,0.01,Wunderground v.1.15,2013-06-19 19:09:00,
2013-06-19 15:19:00,66.3,45.5,30.10,West,270,3.0,13.0,47,0.00,,,0.01,Wunderground v.1.15,2013-06-19 19:19:00,
2013-06-19 15:29:00,66.8,41.7,30.10,NW,312,3.0,13.0,40,0.00,,,0.01,Wunderground v.1.15,2013-06-19 19:29:00,
2013-06-19 15:40:00,66.8,41.0,30.09,West,260,4.0,4.0,39,0.00,,,0.01,Wunderground v.1.15,2013-06-19 19:40:00,
2013-06-19 15:50:00,67.4,44.1,30.09,WNW,283,2.0,13.0,43,0.00,,,0.01,Wunderground v.1.15,2013-06-19 19:50:00,
2013-06-19 16:00:00,67.1,42.6,30.09,North,358,2.0,2.0,41,0.00,,,0.01,Wunderground v.1.15,2013-06-19 20:00:00,
2013-06-19 16:10:00,67.3,37.2,30.09,NW,324,2.0,13.0,33,0.00,,,0.01,Wunderground v.1.15,2013-06-19 20:10:00,
2013-06-19 16:20:00,67.3,38.0,30.09,WNW,295,3.0,3.0,34,0.00,,,0.01,Wunderground v.1.15,2013-06-19 20:20:00,
2013-06-19 16:30:00,67.4,38.0,30.09,NW,324,1.0,1.0,34,0.00,,,0.01,Wunderground v.1.15,2013-06-19 20:30:00,
2013-06-19 16:40:00,67.6,36.7,30.09,WNW,303,2.0,2.0,32,0.00,,,0.01,Wunderground v.1.15,2013-06-19 20:40:00,
2013-06-19 16:50:00,67.6,34.2,30.09,WNW,291,3.0,3.0,29,0.00,,,0.01,Wunderground v.1.15,2013-06-19 20:50:00,
2013-06-19 17:00:00,67.9,33.6,30.09,NNW,336,1.0,13.0,28,0.00,,,0.01,Wunderground v.1.15,2013-06-19 21:00:00,
2013-06-19 17:10:00,67.8,33.5,30.09,WNW,285,3.0,3.0,28,0.00,,,0.01,Wunderground v.1.15,2013-06-19 21:10:00,
2013-06-19 17:20:00,68.1,36.3,30.09,WSW,257,1.0,13.0,31,0.00,,,0.01,Wunderground v.1.15,2013-06-19 21:20:00,
2013-06-19 17:29:00,68.1,34.6,30.09,WNW,302,2.0,13.0,29,0.00,,,0.01,Wunderground v.1.15,2013-06-19 21:29:00,
2013-06-19 17:40:00,67.6,34.2,30.09,West,261,2.0,2.0,29,0.00,,,0.01,Wunderground v.1.15,2013-06-19 21:40:00,
2013-06-19 17:49:00,67.8,36.8,30.09,WNW,291,2.0,13.0,32,0.00,,,0.01,Wunderground v.1.15,2013-06-19 21:49:00,
2013-06-19 18:00:00,67.3,36.4,30.09,WNW,297,2.0,13.0,32,0.00,,,0.01,Wunderground v.1.15,2013-06-19 22:00:00,
2013-06-19 18:10:00,67.1,33.8,30.09,NW,317,2.0,2.0,29,0.00,,,0.01,Wunderground v.1.15,2013-06-19 22:10:00,
2013-06-19 18:20:00,67.1,38.5,30.09,WNW,298,1.0,1.0,35,0.00,,,0.01,Wunderground v.1.15,2013-06-19 22:20:00,
2013-06-19 18:30:00,67.1,37.0,30.09,NW,306,1.0,1.0,33,0.00,,,0.01,Wunderground v.1.15,2013-06-19 22:30:00,
2013-06-19 18:40:00,66.8,37.5,30.09,West,269,1.0,1.0,34,0.00,,,0.01,Wunderground v.1.15,2013-06-19 22:40:00,
2013-06-19 18:49:00,66.0,36.8,30.09,West,279,1.0,1.0,34,0.00,,,0.01,Wunderground v.1.15,2013-06-19 22:49:00,
2013-06-19 19:00:00,65.5,35.6,30.09,WNW,303,1.0,1.0,33,0.00,,,0.01,Wunderground v.1.15,2013-06-19 23:00:00,
2013-06-19 19:10:00,65.3,34.7,30.09,West,281,0.0,8.0,32,0.00,,,0.01,Wunderground v.1.15,2013-06-19 23:10:00,
2013-06-19 19:20:00,65.5,36.4,30.10,NW,316,0.0,8.0,34,0.00,,,0.01,Wunderground v.1.15,2013-06-19 23:20:00,
2013-06-19 19:30:00,65.0,35.9,30.10,NW,321,1.0,1.0,34,0.00,,,0.01,Wunderground v.1.15,2013-06-19 23:30:00,
2013-06-19 19:40:00,63.7,38.9,30.10,NW,322,0.0,8.0,40,0.00,,,0.01,Wunderground v.1.15,2013-06-19 23:40:00,
2013-06-19 19:50:00,62.4,40.8,30.11,NW,322,0.0,8.0,45,0.00,,,0.01,Wunderground v.1.15,2013-06-19 23:50:00,
2013-06-19 20:00:00,61.0,40.6,30.11,NW,322,0.0,8.0,47,0.00,,,0.01,Wunderground v.1.15,2013-06-20 00:00:00,
2013-06-19 20:10:00,60.2,43.0,30.12,NW,323,0.0,8.0,53,0.00,,,0.01,Wunderground v.1.15,2013-06-20 00:10:00,
2013-06-19 20:19:00,59.2,42.1,30.12,NW,323,0.0,8.0,53,0.00,,,0.01,Wunderground v.1.15,2013-06-20 00:19:00,
2013-06-19 20:29:00,58.1,46.0,30.12,NW,323,0.0,8.0,64,0.00,,,0.01,Wunderground v.1.15,2013-06-20 00:29:00,
2013-06-19 20:40:00,56.9,45.3,30.12,NW,323,0.0,8.0,65,0.00,,,0.01,Wunderground v.1.15,2013-06-20 00:40:00,
2013-06-19 20:50:00,55.4,44.6,30.12,NW,323,0.0,8.0,67,0.00,,,0.01,Wunderground v.1.15,2013-06-20 00:50:00,
2013-06-19 21:00:00,54.4,41.2,30.12,NW,323,0.0,8.0,61,0.00,,,0.01,Wunderground v.1.15,2013-06-20 01:00:00,
2013-06-19 21:09:00,53.8,41.1,30.13,NW,323,0.0,8.0,62,0.00,,,0.01,Wunderground v.1.15,2013-06-20 01:09:00,
2013-06-19 21:19:00,53.3,41.8,30.14,NW,323,0.0,8.0,65,0.00,,,0.01,Wunderground v.1.15,2013-06-20 01:19:00,
2013-06-19 21:29:00,53.3,43.0,30.14,NW,323,0.0,8.0,68,0.00,,,0.01,Wunderground v.1.15,2013-06-20 01:29:00,
2013-06-19 21:39:00,54.1,42.6,30.14,NW,323,0.0,8.0,65,0.00,,,0.01,Wunderground v.1.15,2013-06-20 01:39:00,
2013-06-19 21:49:00,53.3,41.0,30.15,NW,323,0.0,8.0,63,0.00,,,0.01,Wunderground v.1.15,2013-06-20 01:49:00,
2013-06-19 22:00:00,52.8,42.1,30.15,NW,323,0.0,8.0,67,0.00,,,0.01,Wunderground v.1.15,2013-06-20 02:00:00,
2013-06-19 22:10:00,52.5,41.5,30.15,NW,323,0.0,8.0,66,0.00,,,0.01,Wunderground v.1.15,2013-06-20 02:10:00,
2013-06-19 22:20:00,52.3,40.9,30.16,NW,323,0.0,8.0,65,0.00,,,0.01,Wunderground v.1.15,2013-06-20 02:20:00,
2013-06-19 22:30:00,51.7,41.1,30.17,NW,323,0.0,8.0,67,0.00,,,0.01,Wunderground v.1.15,2013-06-20 02:30:00,
2013-06-19 22:39:00,51.3,40.7,30.17,NW,323,0.0,8.0,67,0.00,,,0.01,Wunderground v.1.15,2013-06-20 02:39:00,
2013-06-19 22:50:00,50.7,41.3,30.16,NW,323,0.0,8.0,70,0.00,,,0.01,Wunderground v.1.15,2013-06-20 02:50:00,
2013-06-19 23:00:00,49.9,41.6,30.16,NW,323,0.0,8.0,73,0.00,,,0.01,Wunderground v.1.15,2013-06-20 03:00:00,
2013-06-19 23:10:00,49.2,40.9,30.17,NW,323,0.0,8.0,73,0.00,,,0.01,Wunderground v.1.15,2013-06-20 03:10:00,
2013-06-19 23:29:00,49.1,41.9,30.18,NW,323,0.0,8.0,76,0.00,,,0.01,Wunderground v.1.15,2013-06-20 03:29:00,
2013-06-19 23:40:00,49.5,41.6,30.19,NW,323,0.0,8.0,74,0.00,,,0.01,Wunderground v.1.15,2013-06-20 03:40:00,
2013-06-19 23:50:00,49.4,41.5,30.19,NW,323,0.0,8.0,74,0.00,,,0.01,Wunderground v.1.15,2013-06-20 03:50:00,
2013-06-19 23:59:00,49.9,41.2,30.19,NW,323,0.0,8.0,72,0.00,,,0.01,Wunderground v.1.15,2013-06-20 03:59:00,